sensor_id;sensor_type;location;lat;lon;timestamp;temperature;humidity
46400;DHT22;32104;50.838;4.388;2023-05-07T00:00:39;17.60;99.90
46400;DHT22;32104;50.838;4.388;2023-05-07T00:03:05;17.50;99.90
46400;DHT22;32104;50.838;4.388;2023-05-07T00:05:31;17.60;99.90
46400;DHT22;32104;50.838;4.388;2023-05-07T00:08:00;17.50;99.90
46400;DHT22;32104;50.838;4.388;2023-05-07T00:10:26;17.50;99.90
46400;DHT22;32104;50.838;4.388;2023-05-07T00:12:52;17.40;99.90
46400;DHT22;32104;50.838;4.388;2023-05-07T00:15:22;17.40;99.90
46400;DHT22;32104;50.838;4.388;2023-05-07T00:17:48;17.40;99.90
46400;DHT22;32104;50.838;4.388;2023-05-07T00:20:14;17.50;99.90
46400;DHT22;32104;50.838;4.388;2023-05-07T00:22:39;17.50;99.90
46400;DHT22;32104;50.838;4.388;2023-05-07T00:25:05;17.50;99.90
46400;DHT22;32104;50.838;4.388;2023-05-07T00:27:31;17.40;99.90
46400;DHT22;32104;50.838;4.388;2023-05-07T00:29:56;17.40;99.90
46400;DHT22;32104;50.838;4.388;2023-05-07T00:32:22;17.30;99.90
46400;DHT22;32104;50.838;4.388;2023-05-07T00:34:48;17.30;99.90
46400;DHT22;32104;50.838;4.388;2023-05-07T00:37:13;17.30;99.90
46400;DHT22;32104;50.838;4.388;2023-05-07T00:39:39;17.30;99.90
46400;DHT22;32104;50.838;4.388;2023-05-07T00:42:05;17.30;99.90
46400;DHT22;32104;50.838;4.388;2023-05-07T00:44:32;17.30;99.90
46400;DHT22;32104;50.838;4.388;2023-05-07T00:46:58;17.40;99.90
46400;DHT22;32104;50.838;4.388;2023-05-07T00:49:26;17.30;99.90
46400;DHT22;32104;50.838;4.388;2023-05-07T00:51:56;17.30;99.90
46400;DHT22;32104;50.838;4.388;2023-05-07T00:54:21;17.30;99.90
46400;DHT22;32104;50.838;4.388;2023-05-07T00:56:47;17.20;99.90
46400;DHT22;32104;50.838;4.388;2023-05-07T00:59:14;17.30;99.90
46400;DHT22;32104;50.838;4.388;2023-05-07T01:01:40;17.30;99.90
46400;DHT22;32104;50.838;4.388;2023-05-07T01:04:05;17.30;99.90
46400;DHT22;32104;50.838;4.388;2023-05-07T01:06:31;17.40;99.90
46400;DHT22;32104;50.838;4.388;2023-05-07T01:08:57;17.40;99.90
46400;DHT22;32104;50.838;4.388;2023-05-07T01:11:23;17.40;99.90
46400;DHT22;32104;50.838;4.388;2023-05-07T01:13:48;17.40;99.90
46400;DHT22;32104;50.838;4.388;2023-05-07T01:16:15;17.30;99.90
46400;DHT22;32104;50.838;4.388;2023-05-07T01:18:41;17.30;99.90
46400;DHT22;32104;50.838;4.388;2023-05-07T01:21:06;17.30;99.90
46400;DHT22;32104;50.838;4.388;2023-05-07T01:23:33;17.30;99.90
46400;DHT22;32104;50.838;4.388;2023-05-07T01:25:59;17.20;99.90
46400;DHT22;32104;50.838;4.388;2023-05-07T01:28:24;17.20;99.90
46400;DHT22;32104;50.838;4.388;2023-05-07T01:30:51;17.20;99.90
46400;DHT22;32104;50.838;4.388;2023-05-07T01:33:18;17.20;99.90
46400;DHT22;32104;50.838;4.388;2023-05-07T01:35:45;17.20;99.90
46400;DHT22;32104;50.838;4.388;2023-05-07T01:38:11;17.20;99.90
46400;DHT22;32104;50.838;4.388;2023-05-07T01:40:37;17.10;99.90
46400;DHT22;32104;50.838;4.388;2023-05-07T01:43:03;17.10;99.90
46400;DHT22;32104;50.838;4.388;2023-05-07T01:45:32;17.10;99.90
46400;DHT22;32104;50.838;4.388;2023-05-07T01:47:59;17.10;99.90
46400;DHT22;32104;50.838;4.388;2023-05-07T01:50:29;17.10;99.90
46400;DHT22;32104;50.838;4.388;2023-05-07T01:52:56;17.00;99.90
46400;DHT22;32104;50.838;4.388;2023-05-07T01:55:23;16.90;99.90
46400;DHT22;32104;50.838;4.388;2023-05-07T01:57:49;17.00;99.90
46400;DHT22;32104;50.838;4.388;2023-05-07T02:00:15;17.10;99.90
46400;DHT22;32104;50.838;4.388;2023-05-07T02:02:41;17.10;99.90
46400;DHT22;32104;50.838;4.388;2023-05-07T02:05:07;17.20;99.90
46400;DHT22;32104;50.838;4.388;2023-05-07T02:07:32;17.10;99.90
46400;DHT22;32104;50.838;4.388;2023-05-07T02:09:58;17.10;99.90
46400;DHT22;32104;50.838;4.388;2023-05-07T02:12:23;17.00;99.90
46400;DHT22;32104;50.838;4.388;2023-05-07T02:14:49;17.00;99.90
46400;DHT22;32104;50.838;4.388;2023-05-07T02:17:15;17.10;99.90
46400;DHT22;32104;50.838;4.388;2023-05-07T02:19:43;17.10;99.90
46400;DHT22;32104;50.838;4.388;2023-05-07T02:22:09;17.10;99.90
46400;DHT22;32104;50.838;4.388;2023-05-07T02:24:35;17.10;99.90
46400;DHT22;32104;50.838;4.388;2023-05-07T02:27:01;17.00;99.90
46400;DHT22;32104;50.838;4.388;2023-05-07T02:29:27;17.00;99.90
46400;DHT22;32104;50.838;4.388;2023-05-07T02:31:53;17.00;99.90
46400;DHT22;32104;50.838;4.388;2023-05-07T02:34:18;17.00;99.90
46400;DHT22;32104;50.838;4.388;2023-05-07T02:36:44;16.90;99.90
46400;DHT22;32104;50.838;4.388;2023-05-07T02:39:12;16.80;99.90
46400;DHT22;32104;50.838;4.388;2023-05-07T02:41:38;17.00;99.90
46400;DHT22;32104;50.838;4.388;2023-05-07T02:44:07;17.00;99.90
46400;DHT22;32104;50.838;4.388;2023-05-07T02:46:33;17.00;99.90
46400;DHT22;32104;50.838;4.388;2023-05-07T02:48:58;17.00;99.90
46400;DHT22;32104;50.838;4.388;2023-05-07T02:51:25;17.00;99.90
46400;DHT22;32104;50.838;4.388;2023-05-07T02:53:51;17.00;99.90
46400;DHT22;32104;50.838;4.388;2023-05-07T02:56:16;17.00;99.90
46400;DHT22;32104;50.838;4.388;2023-05-07T02:58:42;17.00;99.90
46400;DHT22;32104;50.838;4.388;2023-05-07T03:01:08;17.00;99.90
46400;DHT22;32104;50.838;4.388;2023-05-07T03:03:34;17.00;99.90
46400;DHT22;32104;50.838;4.388;2023-05-07T03:06:00;17.00;99.90
46400;DHT22;32104;50.838;4.388;2023-05-07T03:08:25;17.00;99.90
46400;DHT22;32104;50.838;4.388;2023-05-07T03:10:51;17.00;99.90
46400;DHT22;32104;50.838;4.388;2023-05-07T03:13:16;17.00;99.90
46400;DHT22;32104;50.838;4.388;2023-05-07T03:15:42;17.00;99.90
46400;DHT22;32104;50.838;4.388;2023-05-07T03:18:08;17.00;99.90
46400;DHT22;32104;50.838;4.388;2023-05-07T03:20:33;16.90;99.90
46400;DHT22;32104;50.838;4.388;2023-05-07T03:22:59;17.00;99.90
46400;DHT22;32104;50.838;4.388;2023-05-07T03:25:25;17.00;99.90
46400;DHT22;32104;50.838;4.388;2023-05-07T03:27:51;17.00;99.90
46400;DHT22;32104;50.838;4.388;2023-05-07T03:30:16;17.10;99.90
46400;DHT22;32104;50.838;4.388;2023-05-07T03:32:42;17.00;99.90
46400;DHT22;32104;50.838;4.388;2023-05-07T03:35:08;17.00;99.90
46400;DHT22;32104;50.838;4.388;2023-05-07T03:37:33;17.00;99.90
46400;DHT22;32104;50.838;4.388;2023-05-07T03:39:59;17.00;99.90
46400;DHT22;32104;50.838;4.388;2023-05-07T03:42:24;17.10;99.90
46400;DHT22;32104;50.838;4.388;2023-05-07T03:44:50;17.10;99.90
46400;DHT22;32104;50.838;4.388;2023-05-07T03:47:16;17.10;99.90
46400;DHT22;32104;50.838;4.388;2023-05-07T03:49:41;17.10;99.90
46400;DHT22;32104;50.838;4.388;2023-05-07T03:52:07;17.20;99.90
46400;DHT22;32104;50.838;4.388;2023-05-07T03:54:32;17.20;99.90
46400;DHT22;32104;50.838;4.388;2023-05-07T03:56:58;17.10;99.90
46400;DHT22;32104;50.838;4.388;2023-05-07T03:59:24;17.20;99.90
46400;DHT22;32104;50.838;4.388;2023-05-07T04:01:49;17.30;99.90
46400;DHT22;32104;50.838;4.388;2023-05-07T04:04:15;17.20;99.90
46400;DHT22;32104;50.838;4.388;2023-05-07T04:06:41;17.20;99.90
46400;DHT22;32104;50.838;4.388;2023-05-07T04:09:06;17.20;99.90
46400;DHT22;32104;50.838;4.388;2023-05-07T04:11:32;17.30;99.90
46400;DHT22;32104;50.838;4.388;2023-05-07T04:14:05;17.20;99.90
46400;DHT22;32104;50.838;4.388;2023-05-07T04:16:31;17.30;99.90
46400;DHT22;32104;50.838;4.388;2023-05-07T04:18:57;17.30;99.90
46400;DHT22;32104;50.838;4.388;2023-05-07T04:21:22;17.30;99.90
46400;DHT22;32104;50.838;4.388;2023-05-07T04:23:48;17.30;99.90
46400;DHT22;32104;50.838;4.388;2023-05-07T04:26:15;17.30;99.90
46400;DHT22;32104;50.838;4.388;2023-05-07T04:28:41;17.30;99.90
46400;DHT22;32104;50.838;4.388;2023-05-07T04:31:07;17.30;99.90
46400;DHT22;32104;50.838;4.388;2023-05-07T04:33:33;17.30;99.90
46400;DHT22;32104;50.838;4.388;2023-05-07T04:36:01;17.30;99.90
46400;DHT22;32104;50.838;4.388;2023-05-07T04:38:30;17.30;99.90
46400;DHT22;32104;50.838;4.388;2023-05-07T04:40:57;17.40;99.90
46400;DHT22;32104;50.838;4.388;2023-05-07T04:43:25;17.40;99.90
46400;DHT22;32104;50.838;4.388;2023-05-07T04:45:51;17.50;99.90
46400;DHT22;32104;50.838;4.388;2023-05-07T04:48:20;17.60;99.90
46400;DHT22;32104;50.838;4.388;2023-05-07T04:50:49;17.60;99.90
46400;DHT22;32104;50.838;4.388;2023-05-07T04:53:15;17.60;99.90
46400;DHT22;32104;50.838;4.388;2023-05-07T04:55:40;17.60;99.90
46400;DHT22;32104;50.838;4.388;2023-05-07T04:58:06;17.70;99.90
46400;DHT22;32104;50.838;4.388;2023-05-07T05:00:31;17.70;99.90
46400;DHT22;32104;50.838;4.388;2023-05-07T05:02:57;17.70;99.90
46400;DHT22;32104;50.838;4.388;2023-05-07T05:05:22;17.80;99.90
46400;DHT22;32104;50.838;4.388;2023-05-07T05:07:48;17.80;99.90
46400;DHT22;32104;50.838;4.388;2023-05-07T05:10:17;17.80;99.90
46400;DHT22;32104;50.838;4.388;2023-05-07T05:12:46;17.90;99.90
46400;DHT22;32104;50.838;4.388;2023-05-07T05:15:12;18.00;99.90
46400;DHT22;32104;50.838;4.388;2023-05-07T05:17:38;18.00;99.90
46400;DHT22;32104;50.838;4.388;2023-05-07T05:20:06;18.10;99.90
46400;DHT22;32104;50.838;4.388;2023-05-07T05:22:32;18.20;99.90
46400;DHT22;32104;50.838;4.388;2023-05-07T05:24:58;18.30;99.90
46400;DHT22;32104;50.838;4.388;2023-05-07T05:27:23;18.40;99.90
46400;DHT22;32104;50.838;4.388;2023-05-07T05:29:49;18.50;99.90
46400;DHT22;32104;50.838;4.388;2023-05-07T05:32:15;18.50;99.90
46400;DHT22;32104;50.838;4.388;2023-05-07T05:34:40;18.50;99.90
46400;DHT22;32104;50.838;4.388;2023-05-07T05:37:06;18.50;99.90
46400;DHT22;32104;50.838;4.388;2023-05-07T05:39:32;18.50;99.90
46400;DHT22;32104;50.838;4.388;2023-05-07T05:41:57;18.50;99.90
46400;DHT22;32104;50.838;4.388;2023-05-07T05:44:23;18.50;99.90
46400;DHT22;32104;50.838;4.388;2023-05-07T05:46:48;18.60;99.90
46400;DHT22;32104;50.838;4.388;2023-05-07T05:49:19;18.60;99.90
46400;DHT22;32104;50.838;4.388;2023-05-07T05:51:45;18.70;99.90
46400;DHT22;32104;50.838;4.388;2023-05-07T05:54:11;18.70;99.90
46400;DHT22;32104;50.838;4.388;2023-05-07T05:56:37;18.80;99.90
46400;DHT22;32104;50.838;4.388;2023-05-07T05:59:02;18.80;99.90
46400;DHT22;32104;50.838;4.388;2023-05-07T06:01:31;18.90;99.90
46400;DHT22;32104;50.838;4.388;2023-05-07T06:03:57;18.90;99.90
46400;DHT22;32104;50.838;4.388;2023-05-07T06:06:23;18.90;99.90
46400;DHT22;32104;50.838;4.388;2023-05-07T06:08:50;18.80;99.90
46400;DHT22;32104;50.838;4.388;2023-05-07T06:11:15;18.70;99.90
46400;DHT22;32104;50.838;4.388;2023-05-07T06:13:41;18.70;99.90
46400;DHT22;32104;50.838;4.388;2023-05-07T06:16:06;18.60;99.90
46400;DHT22;32104;50.838;4.388;2023-05-07T06:18:32;18.40;99.90
46400;DHT22;32104;50.838;4.388;2023-05-07T06:20:58;18.30;99.90
46400;DHT22;32104;50.838;4.388;2023-05-07T06:23:23;18.10;99.90
46400;DHT22;32104;50.838;4.388;2023-05-07T06:25:49;18.10;99.90
46400;DHT22;32104;50.838;4.388;2023-05-07T06:28:18;18.10;99.90
46400;DHT22;32104;50.838;4.388;2023-05-07T06:30:43;18.10;99.90
46400;DHT22;32104;50.838;4.388;2023-05-07T06:33:09;18.10;99.90
46400;DHT22;32104;50.838;4.388;2023-05-07T06:35:35;18.10;99.90
46400;DHT22;32104;50.838;4.388;2023-05-07T06:38:00;18.20;99.90
46400;DHT22;32104;50.838;4.388;2023-05-07T06:40:26;18.30;99.90
46400;DHT22;32104;50.838;4.388;2023-05-07T06:42:52;18.30;99.90
46400;DHT22;32104;50.838;4.388;2023-05-07T06:45:18;18.20;99.90
46400;DHT22;32104;50.838;4.388;2023-05-07T06:47:44;18.10;99.90
46400;DHT22;32104;50.838;4.388;2023-05-07T06:50:10;18.20;99.90
46400;DHT22;32104;50.838;4.388;2023-05-07T06:52:35;18.20;99.90
46400;DHT22;32104;50.838;4.388;2023-05-07T06:55:01;18.20;99.90
46400;DHT22;32104;50.838;4.388;2023-05-07T06:57:27;18.10;99.90
46400;DHT22;32104;50.838;4.388;2023-05-07T06:59:55;18.20;99.90
46400;DHT22;32104;50.838;4.388;2023-05-07T07:02:24;18.20;99.90
46400;DHT22;32104;50.838;4.388;2023-05-07T07:04:50;18.10;99.90
46400;DHT22;32104;50.838;4.388;2023-05-07T07:07:15;18.10;99.90
46400;DHT22;32104;50.838;4.388;2023-05-07T07:09:41;18.00;99.90
46400;DHT22;32104;50.838;4.388;2023-05-07T07:12:07;18.00;99.90
46400;DHT22;32104;50.838;4.388;2023-05-07T07:14:34;18.00;99.90
46400;DHT22;32104;50.838;4.388;2023-05-07T07:17:00;17.90;99.90
46400;DHT22;32104;50.838;4.388;2023-05-07T07:19:30;17.90;99.90
46400;DHT22;32104;50.838;4.388;2023-05-07T07:21:56;18.00;99.90
46400;DHT22;32104;50.838;4.388;2023-05-07T07:24:21;18.10;99.90
46400;DHT22;32104;50.838;4.388;2023-05-07T07:26:47;18.20;99.90
46400;DHT22;32104;50.838;4.388;2023-05-07T07:29:16;18.20;99.90
46400;DHT22;32104;50.838;4.388;2023-05-07T07:31:41;18.10;99.90
46400;DHT22;32104;50.838;4.388;2023-05-07T07:34:10;18.10;99.90
46400;DHT22;32104;50.838;4.388;2023-05-07T07:36:36;18.10;99.90
46400;DHT22;32104;50.838;4.388;2023-05-07T07:39:02;18.00;99.90
46400;DHT22;32104;50.838;4.388;2023-05-07T07:41:28;18.10;99.90
46400;DHT22;32104;50.838;4.388;2023-05-07T07:44:02;18.20;99.90
46400;DHT22;32104;50.838;4.388;2023-05-07T07:46:29;18.10;99.90
46400;DHT22;32104;50.838;4.388;2023-05-07T07:48:54;18.10;99.90
46400;DHT22;32104;50.838;4.388;2023-05-07T07:51:20;18.20;99.90
46400;DHT22;32104;50.838;4.388;2023-05-07T07:53:46;18.30;99.90
46400;DHT22;32104;50.838;4.388;2023-05-07T07:56:11;18.30;99.90
46400;DHT22;32104;50.838;4.388;2023-05-07T07:58:37;18.30;99.90
46400;DHT22;32104;50.838;4.388;2023-05-07T08:01:04;18.40;99.90
46400;DHT22;32104;50.838;4.388;2023-05-07T08:03:30;18.50;99.90
46400;DHT22;32104;50.838;4.388;2023-05-07T08:05:57;18.50;99.90
46400;DHT22;32104;50.838;4.388;2023-05-07T08:08:23;18.40;99.90
46400;DHT22;32104;50.838;4.388;2023-05-07T08:10:48;18.50;99.90
46400;DHT22;32104;50.838;4.388;2023-05-07T08:13:17;18.60;99.90
46400;DHT22;32104;50.838;4.388;2023-05-07T08:15:43;18.50;99.90
46400;DHT22;32104;50.838;4.388;2023-05-07T08:18:08;18.40;99.90
46400;DHT22;32104;50.838;4.388;2023-05-07T08:20:34;18.50;99.90
46400;DHT22;32104;50.838;4.388;2023-05-07T08:23:04;18.50;99.90
46400;DHT22;32104;50.838;4.388;2023-05-07T08:25:32;18.60;99.90
46400;DHT22;32104;50.838;4.388;2023-05-07T08:27:58;18.60;99.90
46400;DHT22;32104;50.838;4.388;2023-05-07T08:30:23;18.60;99.90
46400;DHT22;32104;50.838;4.388;2023-05-07T08:32:49;18.60;99.90
46400;DHT22;32104;50.838;4.388;2023-05-07T08:35:15;18.50;99.90
46400;DHT22;32104;50.838;4.388;2023-05-07T08:37:40;18.50;99.90
46400;DHT22;32104;50.838;4.388;2023-05-07T08:40:06;18.60;99.90
46400;DHT22;32104;50.838;4.388;2023-05-07T08:42:40;18.70;99.90
46400;DHT22;32104;50.838;4.388;2023-05-07T08:45:09;18.50;99.90
46400;DHT22;32104;50.838;4.388;2023-05-07T08:47:46;18.40;99.90
46400;DHT22;32104;50.838;4.388;2023-05-07T08:50:12;18.40;99.90
46400;DHT22;32104;50.838;4.388;2023-05-07T08:52:41;18.50;99.90
46400;DHT22;32104;50.838;4.388;2023-05-07T08:55:07;18.50;99.90
46400;DHT22;32104;50.838;4.388;2023-05-07T08:57:33;18.50;99.90
46400;DHT22;32104;50.838;4.388;2023-05-07T08:59:59;18.50;99.90
46400;DHT22;32104;50.838;4.388;2023-05-07T09:02:25;18.50;99.90
46400;DHT22;32104;50.838;4.388;2023-05-07T09:04:51;18.50;99.90
46400;DHT22;32104;50.838;4.388;2023-05-07T09:07:16;18.30;99.90
46400;DHT22;32104;50.838;4.388;2023-05-07T09:09:45;18.10;99.90
46400;DHT22;32104;50.838;4.388;2023-05-07T09:12:11;18.10;99.90
46400;DHT22;32104;50.838;4.388;2023-05-07T09:14:58;18.20;99.90
46400;DHT22;32104;50.838;4.388;2023-05-07T09:17:29;18.40;99.90
46400;DHT22;32104;50.838;4.388;2023-05-07T09:20:05;18.50;99.90
46400;DHT22;32104;50.838;4.388;2023-05-07T09:22:31;18.60;99.90
46400;DHT22;32104;50.838;4.388;2023-05-07T09:24:59;18.70;99.90
46400;DHT22;32104;50.838;4.388;2023-05-07T09:27:25;18.80;99.90
46400;DHT22;32104;50.838;4.388;2023-05-07T09:29:51;18.90;99.90
46400;DHT22;32104;50.838;4.388;2023-05-07T09:32:17;18.90;99.90
46400;DHT22;32104;50.838;4.388;2023-05-07T09:37:35;18.90;99.90
46400;DHT22;32104;50.838;4.388;2023-05-07T09:40:03;19.10;99.90
46400;DHT22;32104;50.838;4.388;2023-05-07T09:42:29;19.20;99.90
46400;DHT22;32104;50.838;4.388;2023-05-07T09:44:58;19.10;99.90
46400;DHT22;32104;50.838;4.388;2023-05-07T09:47:24;19.10;99.90
46400;DHT22;32104;50.838;4.388;2023-05-07T09:49:50;19.10;99.90
46400;DHT22;32104;50.838;4.388;2023-05-07T09:52:20;19.20;99.90
46400;DHT22;32104;50.838;4.388;2023-05-07T09:54:46;19.30;99.90
46400;DHT22;32104;50.838;4.388;2023-05-07T09:57:12;19.40;99.90
46400;DHT22;32104;50.838;4.388;2023-05-07T09:59:38;19.40;99.90
46400;DHT22;32104;50.838;4.388;2023-05-07T10:02:07;19.40;99.90
46400;DHT22;32104;50.838;4.388;2023-05-07T10:04:46;19.50;99.90
46400;DHT22;32104;50.838;4.388;2023-05-07T10:07:11;19.40;99.90
46400;DHT22;32104;50.838;4.388;2023-05-07T10:09:37;19.40;99.90
46400;DHT22;32104;50.838;4.388;2023-05-07T10:12:05;19.50;99.90
46400;DHT22;32104;50.838;4.388;2023-05-07T10:14:31;19.50;99.90
46400;DHT22;32104;50.838;4.388;2023-05-07T10:16:58;19.50;99.90
46400;DHT22;32104;50.838;4.388;2023-05-07T10:19:27;19.50;99.90
46400;DHT22;32104;50.838;4.388;2023-05-07T10:21:57;19.60;99.90
46400;DHT22;32104;50.838;4.388;2023-05-07T10:24:26;19.60;99.90
46400;DHT22;32104;50.838;4.388;2023-05-07T10:26:54;19.80;99.90
46400;DHT22;32104;50.838;4.388;2023-05-07T10:29:54;19.80;99.90
46400;DHT22;32104;50.838;4.388;2023-05-07T10:35:00;19.80;99.90
46400;DHT22;32104;50.838;4.388;2023-05-07T10:37:27;19.90;99.90
46400;DHT22;32104;50.838;4.388;2023-05-07T10:39:54;19.90;99.90
46400;DHT22;32104;50.838;4.388;2023-05-07T10:42:19;19.80;99.90
46400;DHT22;32104;50.838;4.388;2023-05-07T10:44:45;19.80;99.90
46400;DHT22;32104;50.838;4.388;2023-05-07T10:47:12;19.80;99.90
46400;DHT22;32104;50.838;4.388;2023-05-07T10:52:13;19.90;99.90
46400;DHT22;32104;50.838;4.388;2023-05-07T10:54:42;20.00;99.90
46400;DHT22;32104;50.838;4.388;2023-05-07T10:59:54;20.00;99.90
46400;DHT22;32104;50.838;4.388;2023-05-07T11:02:20;20.00;99.90
46400;DHT22;32104;50.838;4.388;2023-05-07T11:04:46;20.10;99.90
46400;DHT22;32104;50.838;4.388;2023-05-07T11:07:31;20.10;99.90
46400;DHT22;32104;50.838;4.388;2023-05-07T11:09:58;20.10;99.90
46400;DHT22;32104;50.838;4.388;2023-05-07T11:15:01;20.00;99.90
46400;DHT22;32104;50.838;4.388;2023-05-07T11:17:28;20.00;99.90
46400;DHT22;32104;50.838;4.388;2023-05-07T11:19:57;20.10;99.90
46400;DHT22;32104;50.838;4.388;2023-05-07T11:25:02;20.30;99.90
46400;DHT22;32104;50.838;4.388;2023-05-07T11:27:29;20.30;99.90
46400;DHT22;32104;50.838;4.388;2023-05-07T11:29:54;20.30;99.90
46400;DHT22;32104;50.838;4.388;2023-05-07T11:32:27;20.20;99.90
46400;DHT22;32104;50.838;4.388;2023-05-07T11:34:57;20.40;99.90
46400;DHT22;32104;50.838;4.388;2023-05-07T11:37:23;20.60;99.90
46400;DHT22;32104;50.838;4.388;2023-05-07T11:43:18;20.70;99.90
46400;DHT22;32104;50.838;4.388;2023-05-07T11:45:47;20.80;99.90
46400;DHT22;32104;50.838;4.388;2023-05-07T11:48:22;20.70;99.90
46400;DHT22;32104;50.838;4.388;2023-05-07T11:51:04;20.80;99.90
46400;DHT22;32104;50.838;4.388;2023-05-07T11:53:37;20.80;99.90
46400;DHT22;32104;50.838;4.388;2023-05-07T11:56:09;20.80;99.90
46400;DHT22;32104;50.838;4.388;2023-05-07T11:58:35;21.00;99.90
46400;DHT22;32104;50.838;4.388;2023-05-07T12:01:01;21.10;99.90
46400;DHT22;32104;50.838;4.388;2023-05-07T12:03:27;21.10;99.90
46400;DHT22;32104;50.838;4.388;2023-05-07T12:06:05;21.10;99.90
46400;DHT22;32104;50.838;4.388;2023-05-07T12:08:31;21.00;99.90
46400;DHT22;32104;50.838;4.388;2023-05-07T12:11:04;21.10;99.90
46400;DHT22;32104;50.838;4.388;2023-05-07T12:13:32;21.00;99.90
46400;DHT22;32104;50.838;4.388;2023-05-07T12:16:00;21.10;99.90
46400;DHT22;32104;50.838;4.388;2023-05-07T12:19:02;21.20;99.90
46400;DHT22;32104;50.838;4.388;2023-05-07T12:21:23;21.30;99.90
46400;DHT22;32104;50.838;4.388;2023-05-07T12:24:01;21.50;99.90
46400;DHT22;32104;50.838;4.388;2023-05-07T12:26:29;21.50;99.90
46400;DHT22;32104;50.838;4.388;2023-05-07T12:28:57;21.60;99.90
46400;DHT22;32104;50.838;4.388;2023-05-07T12:31:25;21.70;99.90
46400;DHT22;32104;50.838;4.388;2023-05-07T12:33:51;21.70;99.90
46400;DHT22;32104;50.838;4.388;2023-05-07T12:36:16;21.50;99.90
46400;DHT22;32104;50.838;4.388;2023-05-07T12:38:42;21.60;99.90
46400;DHT22;32104;50.838;4.388;2023-05-07T12:41:09;21.40;99.90
46400;DHT22;32104;50.838;4.388;2023-05-07T12:43:37;21.40;99.90
46400;DHT22;32104;50.838;4.388;2023-05-07T12:46:07;21.40;99.90
46400;DHT22;32104;50.838;4.388;2023-05-07T12:48:48;21.20;99.90
46400;DHT22;32104;50.838;4.388;2023-05-07T12:51:16;21.20;99.90
46400;DHT22;32104;50.838;4.388;2023-05-07T12:53:42;21.20;99.90
46400;DHT22;32104;50.838;4.388;2023-05-07T12:56:14;21.10;99.90
46400;DHT22;32104;50.838;4.388;2023-05-07T12:58:43;21.30;99.90
46400;DHT22;32104;50.838;4.388;2023-05-07T13:01:09;21.20;99.90
46400;DHT22;32104;50.838;4.388;2023-05-07T13:03:37;21.30;99.90
46400;DHT22;32104;50.838;4.388;2023-05-07T13:06:07;21.40;99.90
46400;DHT22;32104;50.838;4.388;2023-05-07T13:11:45;21.40;99.90
46400;DHT22;32104;50.838;4.388;2023-05-07T13:14:11;21.40;99.90
46400;DHT22;32104;50.838;4.388;2023-05-07T13:16:48;21.30;99.90
46400;DHT22;32104;50.838;4.388;2023-05-07T13:19:20;21.20;99.90
46400;DHT22;32104;50.838;4.388;2023-05-07T13:21:54;21.20;99.90
46400;DHT22;32104;50.838;4.388;2023-05-07T13:24:19;21.30;99.90
46400;DHT22;32104;50.838;4.388;2023-05-07T13:26:48;21.40;99.90
46400;DHT22;32104;50.838;4.388;2023-05-07T13:29:17;21.50;99.90
46400;DHT22;32104;50.838;4.388;2023-05-07T13:32:05;21.40;99.90
46400;DHT22;32104;50.838;4.388;2023-05-07T13:34:34;21.40;99.90
46400;DHT22;32104;50.838;4.388;2023-05-07T13:37:02;21.30;99.90
46400;DHT22;32104;50.838;4.388;2023-05-07T13:39:28;21.40;99.90
46400;DHT22;32104;50.838;4.388;2023-05-07T13:41:55;21.40;99.90
46400;DHT22;32104;50.838;4.388;2023-05-07T13:44:23;21.30;99.90
46400;DHT22;32104;50.838;4.388;2023-05-07T13:46:49;21.20;99.90
46400;DHT22;32104;50.838;4.388;2023-05-07T13:49:22;21.10;99.90
46400;DHT22;32104;50.838;4.388;2023-05-07T13:51:49;21.00;99.90
46400;DHT22;32104;50.838;4.388;2023-05-07T13:54:24;21.00;99.90
46400;DHT22;32104;50.838;4.388;2023-05-07T13:56:50;21.10;99.90
46400;DHT22;32104;50.838;4.388;2023-05-07T13:59:18;21.10;99.90
46400;DHT22;32104;50.838;4.388;2023-05-07T14:01:46;21.10;99.90
46400;DHT22;32104;50.838;4.388;2023-05-07T14:04:12;21.10;99.90
46400;DHT22;32104;50.838;4.388;2023-05-07T14:06:38;21.10;99.90
46400;DHT22;32104;50.838;4.388;2023-05-07T14:09:04;21.20;99.90
46400;DHT22;32104;50.838;4.388;2023-05-07T14:11:32;21.00;99.90
46400;DHT22;32104;50.838;4.388;2023-05-07T14:14:02;21.10;99.90
46400;DHT22;32104;50.838;4.388;2023-05-07T14:16:36;21.20;99.90
46400;DHT22;32104;50.838;4.388;2023-05-07T14:19:02;21.30;99.90
46400;DHT22;32104;50.838;4.388;2023-05-07T14:21:29;21.20;99.90
46400;DHT22;32104;50.838;4.388;2023-05-07T14:23:58;21.10;99.90
46400;DHT22;32104;50.838;4.388;2023-05-07T14:26:25;21.10;99.90
46400;DHT22;32104;50.838;4.388;2023-05-07T14:28:53;21.20;99.90
46400;DHT22;32104;50.838;4.388;2023-05-07T14:31:20;21.20;99.90
46400;DHT22;32104;50.838;4.388;2023-05-07T14:33:46;21.10;99.90
46400;DHT22;32104;50.838;4.388;2023-05-07T14:36:15;21.10;99.90
46400;DHT22;32104;50.838;4.388;2023-05-07T14:38:40;21.00;99.90
46400;DHT22;32104;50.838;4.388;2023-05-07T14:41:06;21.00;99.90
46400;DHT22;32104;50.838;4.388;2023-05-07T14:43:33;21.10;99.90
46400;DHT22;32104;50.838;4.388;2023-05-07T14:45:59;21.10;99.90
46400;DHT22;32104;50.838;4.388;2023-05-07T14:48:27;21.10;99.90
46400;DHT22;32104;50.838;4.388;2023-05-07T14:50:53;21.20;99.90
46400;DHT22;32104;50.838;4.388;2023-05-07T14:53:24;21.20;99.90
46400;DHT22;32104;50.838;4.388;2023-05-07T14:55:52;21.30;99.90
46400;DHT22;32104;50.838;4.388;2023-05-07T14:58:18;21.40;99.90
46400;DHT22;32104;50.838;4.388;2023-05-07T15:00:44;21.20;99.90
46400;DHT22;32104;50.838;4.388;2023-05-07T15:03:11;21.10;99.90
46400;DHT22;32104;50.838;4.388;2023-05-07T15:05:40;21.10;99.90
46400;DHT22;32104;50.838;4.388;2023-05-07T15:08:08;21.00;99.90
46400;DHT22;32104;50.838;4.388;2023-05-07T15:10:37;21.00;99.90
46400;DHT22;32104;50.838;4.388;2023-05-07T15:13:07;20.90;99.90
46400;DHT22;32104;50.838;4.388;2023-05-07T15:18:27;20.90;99.90
46400;DHT22;32104;50.838;4.388;2023-05-07T15:20:55;20.90;99.90
46400;DHT22;32104;50.838;4.388;2023-05-07T15:23:23;20.90;99.90
46400;DHT22;32104;50.838;4.388;2023-05-07T15:25:52;20.80;99.90
46400;DHT22;32104;50.838;4.388;2023-05-07T15:28:21;20.60;99.90
46400;DHT22;32104;50.838;4.388;2023-05-07T15:30:46;20.30;99.90
46400;DHT22;32104;50.838;4.388;2023-05-07T15:33:12;20.20;99.90
46400;DHT22;32104;50.838;4.388;2023-05-07T15:35:43;20.30;99.90
46400;DHT22;32104;50.838;4.388;2023-05-07T15:38:09;20.50;99.90
46400;DHT22;32104;50.838;4.388;2023-05-07T15:40:35;20.40;99.90
46400;DHT22;32104;50.838;4.388;2023-05-07T15:43:03;20.20;99.90
46400;DHT22;32104;50.838;4.388;2023-05-07T15:45:31;20.20;99.90
46400;DHT22;32104;50.838;4.388;2023-05-07T15:48:17;20.30;99.90
46400;DHT22;32104;50.838;4.388;2023-05-07T15:51:03;20.10;99.90
46400;DHT22;32104;50.838;4.388;2023-05-07T15:53:30;20.10;99.90
46400;DHT22;32104;50.838;4.388;2023-05-07T15:55:56;20.20;99.90